Portada
METAR-TAF:

METAR-TAF

Aeropuertos :

Wick, Escocia

latitud: 58-27N, longitud: 003-05W, altitud: 39 m

Observación

El informe se hizo hace 30 minutos, a las 11:50 UTC
Viento 8 kt del sur-sureste
Temperatura 16°C
Humedad 82%
Presión 1009 hPa
Visibilidad 10 km o más
Escasas nubes a una altura de 1000 ft
Nubes dispersas a una altura de 4800 ft

METAR: EGPC 041150Z 16008KT 9999 FEW010 SCT048 16/13 Q1009

Hora: 13:20 (12:20 UTC)

Pronóstico

El informe se hizo hace 1 hora y 22 minutos, a las 10:58 UTC
Pronóstico válido del 04 a las 12 UTC al 04 a las 21 UTC
Viento 7 kt del sur
Visibilidad 10 km o más
Escasas nubes a una altura de 3500 ft
Probabilidad 30% :
Temporalmente
del 04 a las 14 UTC al 04 a las 21 UTC
Visibilidad: 6000 m
lluvia, chaparrones de lluvia

TAF: EGPC 041058Z 0412/0421 17007KT 9999 FEW035 PROB30 TEMPO 0414/0421 6000 RA SHRA

Observaciones y pronósticos meteorológicos de más de 4000 aeropuertos (mensajes METAR y TAF).

Los puntos amarillos y rojos representan las estaciones disponibles.

Ponga el ratón en el punto deseado para ver el nombre de la estación.

Haga clic para ver las observaciones y los pronósticos meteorológicos.

Para cambiar el mapa : haga clic en los botones verdes con una cruz de color negro para hacer un zoom, en el botón verde con un guión para alejar o en las flechas verdes para mapas adyacentes.


METAR-TAF: